createdAt,value
2019-03-11T00:02:56.483Z,2.93
2019-03-11T00:09:01.152Z,2.96
2019-03-11T00:15:08.830Z,2.89
2019-03-11T00:21:13.422Z,2.97
2019-03-11T00:27:18.353Z,2.91
2019-03-11T00:33:22.993Z,3.04
2019-03-11T00:39:27.947Z,3.14
2019-03-11T00:45:32.937Z,3.17
2019-03-11T00:51:37.533Z,3.16
2019-03-11T00:57:42.375Z,2.97
2019-03-11T01:03:47.813Z,2.94
2019-03-11T01:09:52.378Z,2.96
2019-03-11T01:15:57.044Z,2.79
2019-03-11T01:22:01.743Z,2.89
2019-03-11T01:28:06.459Z,2.73
2019-03-11T01:34:11.247Z,2.77
2019-03-11T01:40:18.234Z,2.73
2019-03-11T01:46:22.863Z,2.49
2019-03-11T01:52:27.524Z,2.64
2019-03-11T01:58:32.065Z,2.48
2019-03-11T02:04:36.701Z,2.51
2019-03-11T02:10:41.346Z,2.46
2019-03-11T02:16:47.297Z,2.51
2019-03-11T02:22:51.942Z,2.71
2019-03-11T02:28:56.508Z,2.87
2019-03-11T02:35:01.194Z,3.00
2019-03-11T02:41:06.018Z,2.99
2019-03-11T02:47:10.660Z,2.95
2019-03-11T02:53:15.969Z,2.94
2019-03-11T02:59:20.937Z,2.76
2019-03-11T03:05:32.699Z,2.43
2019-03-11T03:11:37.259Z,2.31
2019-03-11T03:17:41.991Z,2.38
2019-03-11T03:23:47.011Z,2.35
2019-03-11T03:29:52.049Z,2.23
2019-03-11T03:35:56.674Z,2.09
2019-03-11T03:42:01.590Z,1.71
2019-03-11T03:48:06.605Z,1.26
2019-03-11T03:54:11.402Z,0.99
2019-03-11T04:00:17.331Z,0.98
2019-03-11T04:06:22.164Z,0.94
2019-03-11T04:12:26.986Z,1.04
2019-03-11T04:18:53.652Z,0.94
2019-03-11T04:24:58.407Z,1.03
2019-03-11T04:31:03.701Z,1.09
2019-03-11T04:37:08.515Z,1.17
2019-03-11T04:43:13.604Z,1.43
2019-03-11T04:49:20.371Z,1.43
2019-03-11T04:55:25.144Z,1.37
2019-03-11T05:01:30.044Z,1.50
2019-03-11T05:07:34.686Z,1.56
2019-03-11T05:13:39.467Z,1.62
2019-03-11T05:19:44.961Z,1.56
2019-03-11T05:25:50.231Z,1.70
2019-03-11T05:31:54.787Z,1.67
2019-03-11T05:37:59.488Z,1.71
2019-03-11T05:44:04.557Z,1.88
2019-03-11T05:50:14.443Z,1.93
2019-03-11T05:56:19.631Z,2.07
2019-03-11T06:02:24.318Z,2.05
2019-03-11T06:08:29.056Z,1.95
2019-03-11T06:14:33.987Z,2.04
2019-03-11T06:20:40.267Z,2.13
2019-03-11T06:26:45.491Z,2.27
2019-03-11T06:32:50.447Z,2.14
2019-03-11T06:39:05.473Z,2.13
2019-03-11T06:45:01.700Z,2.12
2019-03-11T06:51:06.463Z,2.24
2019-03-11T06:57:12.768Z,2.40
2019-03-11T07:03:18.660Z,2.48
2019-03-11T07:09:23.448Z,2.63
2019-03-11T07:15:28.294Z,2.78
2019-03-11T07:21:32.979Z,2.72
2019-03-11T07:27:37.706Z,2.62
2019-03-11T07:33:42.407Z,2.46
2019-03-11T07:39:47.342Z,2.50
2019-03-11T07:45:52.138Z,2.63
2019-03-11T07:51:56.898Z,2.72
2019-03-11T07:58:01.617Z,2.78
2019-03-11T08:04:06.332Z,3.06
2019-03-11T08:10:15.818Z,2.98
2019-03-11T08:16:20.452Z,2.94
2019-03-11T08:22:25.003Z,2.84
2019-03-11T08:28:29.567Z,2.70
2019-03-11T08:34:34.450Z,2.62
2019-03-11T08:40:39.022Z,2.58
2019-03-11T08:46:45.659Z,3.03
2019-03-11T08:52:50.363Z,3.50
2019-03-11T08:58:55.256Z,3.44
2019-03-11T09:05:00.366Z,3.24
2019-03-11T09:11:05.430Z,3.17
2019-03-11T09:17:10.014Z,3.23
2019-03-11T09:23:15.180Z,3.37
2019-03-11T09:29:20.652Z,4.00
2019-03-11T09:35:25.403Z,3.73
2019-03-11T09:41:30.436Z,3.61
2019-03-11T09:47:35.304Z,3.38
2019-03-11T09:53:39.996Z,3.37
2019-03-11T09:59:45.011Z,4.54
2019-03-11T10:05:49.855Z,4.27
2019-03-11T10:11:54.731Z,3.93
2019-03-11T10:17:59.372Z,3.57
2019-03-11T10:24:04.016Z,3.40
2019-03-11T10:30:16.473Z,3.09
2019-03-11T10:36:21.727Z,2.89
2019-03-11T10:42:26.418Z,2.67
2019-03-11T10:48:37.035Z,2.76
2019-03-11T10:54:37.396Z,2.66
2019-03-11T11:00:42.257Z,2.71
2019-03-11T11:06:47.558Z,2.95
2019-03-11T11:12:52.578Z,2.98
2019-03-11T11:18:57.158Z,3.15
2019-03-11T11:25:01.846Z,3.38
2019-03-11T11:31:06.858Z,3.52
2019-03-11T11:37:11.531Z,3.62
2019-03-11T11:43:18.132Z,3.79
2019-03-11T11:49:22.810Z,3.61
2019-03-11T11:55:27.608Z,3.56
2019-03-11T12:01:32.156Z,3.76
2019-03-11T12:07:36.810Z,3.78
2019-03-11T12:13:41.382Z,3.80
2019-03-11T12:19:46.343Z,3.95
2019-03-11T12:25:51.071Z,3.96
2019-03-11T12:31:55.930Z,4.16
2019-03-11T12:38:00.745Z,4.42
2019-03-11T12:44:05.519Z,4.07
2019-03-11T12:50:17.122Z,4.08
2019-03-11T12:56:21.868Z,4.08
2019-03-11T13:02:26.460Z,4.29
2019-03-11T13:08:30.993Z,4.26
2019-03-11T13:14:35.843Z,4.35
2019-03-11T13:20:41.040Z,4.57
2019-03-11T13:26:45.616Z,4.52
2019-03-11T13:32:50.521Z,4.45
2019-03-11T13:38:55.117Z,3.90
2019-03-11T13:44:59.744Z,3.48
2019-03-11T13:51:04.442Z,3.42
2019-03-11T13:57:09.246Z,3.28
2019-03-11T14:03:14.641Z,3.24
2019-03-11T14:09:19.554Z,3.19
2019-03-11T14:15:24.532Z,3.16
2019-03-11T14:21:29.092Z,3.20
2019-03-11T14:27:33.946Z,3.26
2019-03-11T14:33:38.929Z,3.30
2019-03-11T14:39:44.070Z,3.43
2019-03-11T14:45:49.301Z,3.62
2019-03-11T14:51:55.174Z,3.71
2019-03-11T14:58:01.038Z,4.02
2019-03-11T15:04:06.042Z,4.43
2019-03-11T15:10:15.460Z,4.37
2019-03-11T15:16:20.573Z,4.70
2019-03-11T15:22:25.521Z,4.91
2019-03-11T15:28:30.666Z,5.11
2019-03-11T15:34:35.195Z,4.94
2019-03-11T15:40:39.831Z,4.85
2019-03-11T15:46:44.803Z,4.71
2019-03-11T15:52:49.877Z,4.58
2019-03-11T15:58:54.634Z,4.66
2019-03-11T16:04:59.373Z,4.53
2019-03-11T16:11:04.152Z,4.44
2019-03-11T16:17:08.976Z,4.30
2019-03-11T16:23:14.073Z,4.32
2019-03-11T16:29:21.211Z,4.32
2019-03-11T16:35:28.007Z,4.27
2019-03-11T16:41:32.642Z,4.07
2019-03-11T16:47:37.343Z,4.05
2019-03-11T16:53:41.988Z,4.12
2019-03-11T16:59:46.878Z,4.12
2019-03-11T17:05:52.182Z,3.99
2019-03-11T17:11:57.000Z,4.11
2019-03-11T17:18:01.773Z,4.05
2019-03-11T17:24:06.480Z,4.04
2019-03-11T17:30:17.944Z,4.13
2019-03-11T17:36:22.848Z,4.07
2019-03-11T17:42:27.487Z,4.11
2019-03-11T17:48:32.198Z,3.93
2019-03-11T17:54:36.965Z,4.04
2019-03-11T18:00:54.544Z,4.02
2019-03-11T18:06:50.111Z,4.04
2019-03-11T18:12:54.746Z,4.01
2019-03-11T18:18:59.356Z,3.97
2019-03-11T18:25:04.484Z,3.91
2019-03-11T18:31:09.032Z,3.94
2019-03-11T18:37:14.065Z,3.79
2019-03-11T18:43:21.050Z,3.23
2019-03-11T18:49:25.391Z,2.87
2019-03-11T18:55:30.173Z,2.88
2019-03-11T19:01:34.968Z,2.89
2019-03-11T19:07:39.717Z,2.89
2019-03-11T19:13:45.580Z,2.94
2019-03-11T19:19:50.453Z,2.96
2019-03-11T19:25:55.402Z,2.99
2019-03-11T19:32:00.151Z,2.99
2019-03-11T19:38:04.972Z,3.10
2019-03-11T19:44:09.601Z,3.28
2019-03-11T19:50:18.954Z,3.46
2019-03-11T19:56:23.800Z,3.65
2019-03-11T20:02:28.478Z,3.73
2019-03-11T20:08:33.180Z,3.77
2019-03-11T20:14:38.042Z,3.88
2019-03-11T20:20:42.779Z,3.96
2019-03-11T20:26:48.152Z,4.03
2019-03-11T20:32:52.852Z,3.95
2019-03-11T20:38:57.481Z,3.96
2019-03-11T20:45:02.309Z,4.01
2019-03-11T20:51:07.056Z,4.08
2019-03-11T20:57:11.987Z,4.04
2019-03-11T21:03:17.393Z,4.19
2019-03-11T21:09:22.276Z,4.19
2019-03-11T21:15:27.023Z,4.22
2019-03-11T21:21:31.750Z,4.22
2019-03-11T21:27:36.342Z,4.13
2019-03-11T21:33:41.442Z,4.28
2019-03-11T21:39:46.523Z,4.21
2019-03-11T21:45:51.466Z,4.19
2019-03-11T21:51:56.581Z,4.20
2019-03-11T21:58:12.664Z,4.33
2019-03-11T22:04:07.636Z,4.23
2019-03-11T22:10:18.009Z,4.25
2019-03-11T22:16:22.652Z,4.34
2019-03-11T22:22:27.412Z,4.33
2019-03-11T22:28:32.133Z,4.19
2019-03-11T22:34:37.067Z,4.37
2019-03-11T22:40:41.665Z,4.38
2019-03-11T22:46:47.138Z,4.33
2019-03-11T22:52:52.240Z,4.32
2019-03-11T22:58:57.111Z,4.23
2019-03-11T23:05:02.093Z,4.27
2019-03-11T23:11:06.987Z,4.24
2019-03-11T23:17:11.838Z,4.26
2019-03-11T23:23:17.829Z,4.20
2019-03-11T23:29:22.437Z,4.18
2019-03-11T23:35:27.120Z,4.13
2019-03-11T23:41:31.729Z,4.14
2019-03-11T23:47:36.606Z,4.09
2019-03-11T23:53:41.356Z,4.02
2019-03-11T23:59:46.781Z,4.01
